createdAt,value
2017-11-12T00:01:31.113Z,4.81
2017-11-12T00:03:58.644Z,4.79
2017-11-12T00:06:25.624Z,4.77
2017-11-12T00:08:52.318Z,4.82
2017-11-12T00:11:19.011Z,4.82
2017-11-12T00:13:47.200Z,4.86
2017-11-12T00:16:13.870Z,4.91
2017-11-12T00:18:40.670Z,4.89
2017-11-12T00:21:08.103Z,4.95
2017-11-12T00:23:34.828Z,5.01
2017-11-12T00:26:02.313Z,5.12
2017-11-12T00:28:29.028Z,5.15
2017-11-12T00:30:55.728Z,5.22
2017-11-12T00:33:23.203Z,5.23
2017-11-12T00:35:50.163Z,5.20
2017-11-12T00:38:16.895Z,5.05
2017-11-12T00:40:43.620Z,4.91
2017-11-12T00:43:11.033Z,4.94
2017-11-12T00:45:37.785Z,5.15
2017-11-12T00:48:04.601Z,5.25
2017-11-12T00:50:31.408Z,5.25
2017-11-12T00:52:59.059Z,5.29
2017-11-12T00:55:25.843Z,5.35
2017-11-12T00:57:52.553Z,5.37
2017-11-12T01:00:19.236Z,5.43
2017-11-12T01:02:45.948Z,5.35
2017-11-12T01:05:12.637Z,5.31
2017-11-12T01:07:39.368Z,5.45
2017-11-12T01:10:06.064Z,5.49
2017-11-12T01:12:32.768Z,5.30
2017-11-12T01:14:59.428Z,5.39
2017-11-12T01:17:27.023Z,5.40
2017-11-12T01:19:53.691Z,5.44
2017-11-12T01:22:21.092Z,5.49
2017-11-12T01:24:47.851Z,5.24
2017-11-12T01:27:14.517Z,5.24
2017-11-12T01:29:41.230Z,5.32
2017-11-12T01:32:07.924Z,5.25
2017-11-12T01:34:34.624Z,5.35
2017-11-12T01:37:01.313Z,5.36
2017-11-12T01:39:28.763Z,5.39
2017-11-12T01:41:56.163Z,5.35
2017-11-12T01:44:23.773Z,5.28
2017-11-12T01:46:50.540Z,5.28
2017-11-12T01:49:17.955Z,5.28
2017-11-12T01:51:44.624Z,5.26
2017-11-12T01:54:11.364Z,5.29
2017-11-12T01:56:38.087Z,5.25
2017-11-12T01:59:04.844Z,5.21
2017-11-12T02:01:31.629Z,5.16
2017-11-12T02:03:58.306Z,5.11
2017-11-12T02:06:25.020Z,5.13
2017-11-12T02:08:51.766Z,5.03
2017-11-12T02:11:18.495Z,5.08
2017-11-12T02:13:45.943Z,5.06
2017-11-12T02:16:13.409Z,5.04
2017-11-12T02:18:40.824Z,5.01
2017-11-12T02:21:07.629Z,4.95
2017-11-12T02:23:34.643Z,4.92
2017-11-12T02:26:01.418Z,4.91
2017-11-12T02:28:28.969Z,4.88
2017-11-12T02:30:56.494Z,4.89
2017-11-12T02:33:23.241Z,4.90
2017-11-12T02:35:50.005Z,4.83
2017-11-12T02:38:17.874Z,4.69
2017-11-12T02:40:44.655Z,4.81
2017-11-12T02:43:11.476Z,4.77
2017-11-12T02:45:39.223Z,4.84
2017-11-12T02:48:05.978Z,4.83
2017-11-12T02:50:32.670Z,4.76
2017-11-12T02:52:59.418Z,4.69
2017-11-12T02:55:26.165Z,4.67
2017-11-12T02:57:52.911Z,4.54
2017-11-12T03:00:19.644Z,4.65
2017-11-12T03:02:46.353Z,4.57
2017-11-12T03:05:13.024Z,4.46
2017-11-12T03:07:39.731Z,4.59
2017-11-12T03:10:06.438Z,4.58
2017-11-12T03:12:33.119Z,4.72
2017-11-12T03:14:59.863Z,4.81
2017-11-12T03:17:26.900Z,4.86
2017-11-12T03:19:53.599Z,4.62
2017-11-12T03:22:20.419Z,4.66
2017-11-12T03:24:47.943Z,4.56
2017-11-12T03:27:14.735Z,4.65
2017-11-12T03:29:42.259Z,4.40
2017-11-12T03:32:08.936Z,4.56
2017-11-12T03:34:36.358Z,4.59
2017-11-12T03:37:03.078Z,4.55
2017-11-12T03:39:29.841Z,4.39
2017-11-12T03:41:56.838Z,4.53
2017-11-12T03:44:24.300Z,4.38
2017-11-12T03:46:51.725Z,4.31
2017-11-12T03:49:18.441Z,4.42
2017-11-12T03:51:45.272Z,4.51
2017-11-12T03:54:11.959Z,4.65
2017-11-12T03:56:38.620Z,4.73
2017-11-12T03:59:06.129Z,4.66
2017-11-12T04:01:32.832Z,4.47
2017-11-12T04:04:00.274Z,4.70
2017-11-12T04:06:27.817Z,4.84
2017-11-12T04:08:54.630Z,4.87
2017-11-12T04:11:21.317Z,4.94
2017-11-12T04:13:49.083Z,4.87
2017-11-12T04:16:15.844Z,4.87
2017-11-12T04:18:42.543Z,4.82
2017-11-12T04:21:10.057Z,4.70
2017-11-12T04:23:36.776Z,4.49
2017-11-12T04:26:03.464Z,4.67
2017-11-12T04:28:30.972Z,4.52
2017-11-12T04:30:58.153Z,4.47
2017-11-12T04:33:24.832Z,4.48
2017-11-12T04:35:52.321Z,4.38
2017-11-12T04:38:18.996Z,4.48
2017-11-12T04:40:46.368Z,4.60
2017-11-12T04:43:13.036Z,4.51
2017-11-12T04:45:39.712Z,4.69
2017-11-12T04:48:06.382Z,4.55
2017-11-12T04:50:33.075Z,4.53
2017-11-12T04:52:59.768Z,4.65
2017-11-12T04:55:26.605Z,4.62
2017-11-12T04:57:53.357Z,4.63
2017-11-12T05:00:20.780Z,4.60
2017-11-12T05:02:47.557Z,4.60
2017-11-12T05:05:15.097Z,4.59
2017-11-12T05:07:41.792Z,4.40
2017-11-12T05:10:09.238Z,4.17
2017-11-12T05:12:36.229Z,4.07
2017-11-12T05:15:02.928Z,3.93
2017-11-12T05:17:29.617Z,4.08
2017-11-12T05:19:56.308Z,4.01
2017-11-12T05:22:23.062Z,4.04
2017-11-12T05:24:50.079Z,3.99
2017-11-12T05:27:17.442Z,4.06
2017-11-12T05:29:44.107Z,3.93
2017-11-12T05:32:10.764Z,4.06
2017-11-12T05:34:37.517Z,3.94
2017-11-12T05:37:04.904Z,3.94
2017-11-12T05:39:31.569Z,3.88
2017-11-12T05:41:58.286Z,4.00
2017-11-12T05:44:24.937Z,4.11
2017-11-12T05:46:51.587Z,4.08
2017-11-12T05:49:18.255Z,4.31
2017-11-12T05:51:45.663Z,4.53
2017-11-12T05:54:13.035Z,4.46
2017-11-12T05:56:39.735Z,4.52
2017-11-12T05:59:06.507Z,4.56
2017-11-12T06:01:34.750Z,4.46
2017-11-12T06:04:01.428Z,4.51
2017-11-12T06:06:28.852Z,4.58
2017-11-12T06:08:55.555Z,4.62
2017-11-12T06:11:22.324Z,4.77
2017-11-12T06:13:49.120Z,4.70
2017-11-12T06:16:17.573Z,4.59
2017-11-12T06:18:44.376Z,4.37
2017-11-12T06:21:11.317Z,4.52
2017-11-12T06:23:38.005Z,4.57
2017-11-12T06:26:05.099Z,4.82
2017-11-12T06:28:31.873Z,4.98
2017-11-12T06:30:58.600Z,4.61
2017-11-12T06:33:25.317Z,4.78
2017-11-12T06:35:52.726Z,4.87
2017-11-12T06:38:19.420Z,4.75
2017-11-12T06:40:46.839Z,4.95
2017-11-12T06:43:15.441Z,5.08
2017-11-12T06:45:42.115Z,5.09
2017-11-12T06:48:09.589Z,5.21
2017-11-12T06:50:37.245Z,5.45
2017-11-12T06:53:04.647Z,5.37
2017-11-12T06:55:31.361Z,5.40
2017-11-12T06:57:58.109Z,5.33
2017-11-12T07:00:24.783Z,5.53
2017-11-12T07:02:51.467Z,5.48
2017-11-12T07:05:18.913Z,5.35
2017-11-12T07:07:45.672Z,5.59
2017-11-12T07:10:13.192Z,5.79
2017-11-12T07:12:39.923Z,5.92
2017-11-12T07:15:06.663Z,5.70
2017-11-12T07:17:34.351Z,5.80
2017-11-12T07:20:01.089Z,5.71
2017-11-12T07:22:27.879Z,5.39
2017-11-12T07:24:55.290Z,5.53
2017-11-12T07:27:21.948Z,5.56
2017-11-12T07:29:48.662Z,5.50
2017-11-12T07:32:15.369Z,5.31
2017-11-12T07:34:43.063Z,5.41
2017-11-12T07:37:09.758Z,5.67
2017-11-12T07:39:37.276Z,5.94
2017-11-12T07:42:04.667Z,6.15
2017-11-12T07:44:31.299Z,6.30
2017-11-12T07:46:58.889Z,6.33
2017-11-12T07:49:25.552Z,6.36
2017-11-12T07:51:52.984Z,6.53
2017-11-12T07:54:21.293Z,6.57
2017-11-12T07:56:49.035Z,6.75
2017-11-12T07:59:16.528Z,6.82
2017-11-12T08:01:44.095Z,6.85
2017-11-12T08:04:11.720Z,6.88
2017-11-12T08:06:38.603Z,6.65
2017-11-12T08:09:06.016Z,6.73
2017-11-12T08:11:33.570Z,7.03
2017-11-12T08:14:01.105Z,7.08
2017-11-12T08:16:28.560Z,7.25
2017-11-12T08:18:55.970Z,7.41
2017-11-12T08:21:23.416Z,7.50
2017-11-12T08:23:50.103Z,7.43
2017-11-12T08:26:17.531Z,7.23
2017-11-12T08:28:45.128Z,7.27
2017-11-12T08:31:12.985Z,7.15
2017-11-12T08:33:39.668Z,7.05
2017-11-12T08:36:06.445Z,7.04
2017-11-12T08:38:33.207Z,7.20
2017-11-12T08:40:59.940Z,7.12
2017-11-12T08:43:26.652Z,7.10
2017-11-12T08:45:53.459Z,7.11
2017-11-12T08:48:20.714Z,7.26
2017-11-12T08:50:48.449Z,7.42
2017-11-12T08:53:15.260Z,7.51
2017-11-12T08:55:42.681Z,7.66
2017-11-12T08:58:09.391Z,7.93
2017-11-12T09:00:36.067Z,8.07
2017-11-12T09:03:02.771Z,8.23
2017-11-12T09:05:29.544Z,8.29
2017-11-12T09:07:56.292Z,8.46
2017-11-12T09:10:23.035Z,8.48
2017-11-12T09:12:49.778Z,8.38
2017-11-12T09:15:16.506Z,8.54
2017-11-12T09:17:43.287Z,8.42
2017-11-12T09:20:11.529Z,8.34
2017-11-12T09:22:38.207Z,8.24
2017-11-12T09:25:05.191Z,8.21
2017-11-12T09:27:31.866Z,8.26
2017-11-12T09:29:58.567Z,8.32
2017-11-12T09:32:26.921Z,8.30
2017-11-12T09:34:53.721Z,8.39
2017-11-12T09:37:20.465Z,8.19
2017-11-12T09:39:47.188Z,8.13
2017-11-12T09:42:14.684Z,8.12
2017-11-12T09:44:41.375Z,8.07
2017-11-12T09:47:08.895Z,8.03
2017-11-12T09:49:36.277Z,7.88
2017-11-12T09:52:03.041Z,7.85
2017-11-12T09:54:30.444Z,7.89
2017-11-12T09:56:57.162Z,8.02
2017-11-12T09:59:23.857Z,8.27
2017-11-12T10:01:50.535Z,8.30
2017-11-12T10:04:17.953Z,8.55
2017-11-12T10:06:44.659Z,8.98
2017-11-12T10:09:11.384Z,9.14
2017-11-12T10:11:38.776Z,9.16
2017-11-12T10:14:06.454Z,9.35
2017-11-12T10:16:33.153Z,9.43
2017-11-12T10:18:59.862Z,9.53
2017-11-12T10:21:26.625Z,9.28
2017-11-12T10:23:53.295Z,8.86
2017-11-12T10:26:20.008Z,8.93
2017-11-12T10:28:48.369Z,8.77
2017-11-12T10:31:15.075Z,8.30
2017-11-12T10:33:41.798Z,8.24
2017-11-12T10:36:09.245Z,8.11
2017-11-12T10:38:38.196Z,8.07
2017-11-12T10:41:04.876Z,8.34
2017-11-12T10:43:31.691Z,8.24
2017-11-12T10:45:58.354Z,8.23
2017-11-12T10:48:25.031Z,8.41
2017-11-12T10:50:51.751Z,8.44
2017-11-12T10:53:18.563Z,8.73
2017-11-12T10:55:45.278Z,8.51
2017-11-12T10:58:11.997Z,8.37
2017-11-12T11:00:39.431Z,8.55
2017-11-12T11:03:07.079Z,8.66
2017-11-12T11:05:33.768Z,8.83
2017-11-12T11:08:01.171Z,8.93
2017-11-12T11:10:27.879Z,9.18
2017-11-12T11:12:55.322Z,9.26
2017-11-12T11:15:22.013Z,9.12
2017-11-12T11:17:48.747Z,9.12
2017-11-12T11:20:16.370Z,9.01
2017-11-12T11:22:43.020Z,9.00
2017-11-12T11:25:10.447Z,8.94
2017-11-12T11:27:37.219Z,8.92
2017-11-12T11:30:03.982Z,8.83
2017-11-12T11:32:31.415Z,8.75
2017-11-12T11:34:58.168Z,9.00
2017-11-12T11:37:24.843Z,9.36
2017-11-12T11:39:51.515Z,9.54
2017-11-12T11:42:19.155Z,9.45
2017-11-12T11:44:45.843Z,9.11
2017-11-12T11:47:12.506Z,9.10
2017-11-12T11:49:39.328Z,9.11
2017-11-12T11:52:06.021Z,9.05
2017-11-12T11:54:32.741Z,9.11
2017-11-12T11:57:00.223Z,9.09
2017-11-12T11:59:27.804Z,8.99
2017-11-12T12:01:54.545Z,8.94
2017-11-12T12:04:21.272Z,9.21
2017-11-12T12:06:48.671Z,9.23
2017-11-12T12:09:15.484Z,9.19
2017-11-12T12:11:42.939Z,9.13
2017-11-12T12:14:10.444Z,9.31
2017-11-12T12:16:37.200Z,9.30
2017-11-12T12:19:03.937Z,9.30
2017-11-12T12:21:30.671Z,9.20
2017-11-12T12:23:57.343Z,9.34
2017-11-12T12:26:24.033Z,9.43
2017-11-12T12:28:50.723Z,9.57
2017-11-12T12:31:17.379Z,9.58
2017-11-12T12:33:44.240Z,9.71
2017-11-12T12:36:11.688Z,9.71
2017-11-12T12:38:38.378Z,9.74
2017-11-12T12:41:05.077Z,9.74
2017-11-12T12:43:31.839Z,9.76
2017-11-12T12:46:00.960Z,9.77
2017-11-12T12:48:28.059Z,9.72
2017-11-12T12:50:55.134Z,9.68
2017-11-12T12:53:21.946Z,9.62
2017-11-12T12:55:48.866Z,9.47
2017-11-12T12:58:15.916Z,9.24
2017-11-12T13:00:43.528Z,9.55
2017-11-12T13:03:10.284Z,9.84
2017-11-12T13:05:38.589Z,9.65
2017-11-12T13:08:06.238Z,9.70
2017-11-12T13:10:33.111Z,9.76
2017-11-12T13:12:59.822Z,9.84
2017-11-12T13:15:27.337Z,9.92
2017-11-12T13:17:54.148Z,9.58
2017-11-12T13:20:21.615Z,9.74
2017-11-12T13:22:49.068Z,9.62
2017-11-12T13:25:17.544Z,9.69
2017-11-12T13:27:45.337Z,9.38
2017-11-12T13:30:12.095Z,9.43
2017-11-12T13:32:38.875Z,9.38
2017-11-12T13:35:05.667Z,9.25
2017-11-12T13:37:32.491Z,9.17
2017-11-12T13:40:00.016Z,9.21
2017-11-12T13:42:26.761Z,9.19
2017-11-12T13:44:53.472Z,9.33
2017-11-12T13:47:20.289Z,9.25
2017-11-12T13:49:46.973Z,9.11
2017-11-12T13:52:14.953Z,9.28
2017-11-12T13:54:42.027Z,9.40
2017-11-12T13:57:08.727Z,9.57
2017-11-12T13:59:36.354Z,9.62
2017-11-12T14:02:03.069Z,9.74
2017-11-12T14:04:30.554Z,9.84
2017-11-12T14:06:57.312Z,9.86
2017-11-12T14:09:24.837Z,9.84
2017-11-12T14:11:51.688Z,9.72
2017-11-12T14:14:18.463Z,9.82
2017-11-12T14:16:45.221Z,9.76
2017-11-12T14:19:12.704Z,9.75
2017-11-12T14:21:39.432Z,9.73
2017-11-12T14:24:06.298Z,9.76
2017-11-12T14:26:33.108Z,9.81
2017-11-12T14:28:59.819Z,9.67
2017-11-12T14:31:26.608Z,9.44
2017-11-12T14:33:54.016Z,9.53
2017-11-12T14:36:20.677Z,9.51
2017-11-12T14:38:47.407Z,9.46
2017-11-12T14:41:14.119Z,9.50
2017-11-12T14:43:40.850Z,9.44
2017-11-12T14:46:07.665Z,9.56
2017-11-12T14:48:34.423Z,9.66
2017-11-12T14:51:01.864Z,9.69
2017-11-12T14:53:28.561Z,9.68
2017-11-12T14:55:55.321Z,9.68
2017-11-12T14:58:22.046Z,9.64
2017-11-12T15:00:48.820Z,9.59
2017-11-12T15:03:15.577Z,9.65
2017-11-12T15:05:42.269Z,9.60
2017-11-12T15:08:09.325Z,9.62
2017-11-12T15:10:36.023Z,9.55
2017-11-12T15:13:02.720Z,9.45
2017-11-12T15:15:29.460Z,9.29
2017-11-12T15:17:56.256Z,9.18
2017-11-12T15:20:22.958Z,9.23
2017-11-12T15:22:49.645Z,9.16
2017-11-12T15:25:16.333Z,9.29
2017-11-12T15:27:43.031Z,9.13
2017-11-12T15:30:09.860Z,9.17
2017-11-12T15:32:36.551Z,9.20
2017-11-12T15:35:03.280Z,9.28
2017-11-12T15:37:30.759Z,9.31
2017-11-12T15:39:57.492Z,9.35
2017-11-12T15:42:24.933Z,9.42
2017-11-12T15:44:51.671Z,9.38
2017-11-12T15:47:18.457Z,9.19
2017-11-12T15:49:45.140Z,9.01
2017-11-12T15:52:11.844Z,9.12
2017-11-12T15:54:38.539Z,9.23
2017-11-12T15:57:06.042Z,9.07
2017-11-12T15:59:32.833Z,8.98
2017-11-12T16:01:59.484Z,8.81
2017-11-12T16:04:26.164Z,8.57
2017-11-12T16:06:53.615Z,8.42
2017-11-12T16:09:20.327Z,8.48
2017-11-12T16:11:47.039Z,8.51
2017-11-12T16:14:13.756Z,8.69
2017-11-12T16:16:41.180Z,8.79
2017-11-12T16:19:07.944Z,8.80
2017-11-12T16:21:34.622Z,8.71
2017-11-12T16:24:01.263Z,8.58
2017-11-12T16:26:27.950Z,8.71
2017-11-12T16:28:55.543Z,8.67
2017-11-12T16:31:22.245Z,8.67
2017-11-12T16:33:49.644Z,8.78
2017-11-12T16:36:16.347Z,8.83
2017-11-12T16:38:43.076Z,8.80
2017-11-12T16:41:09.781Z,8.87
2017-11-12T16:43:37.217Z,9.02
2017-11-12T16:46:03.939Z,8.82
2017-11-12T16:48:30.613Z,8.90
2017-11-12T16:50:57.308Z,8.91
2017-11-12T16:53:23.981Z,8.88
2017-11-12T16:55:50.636Z,8.94
2017-11-12T16:58:17.356Z,8.71
2017-11-12T17:00:44.031Z,8.76
2017-11-12T17:03:10.739Z,8.65
2017-11-12T17:05:37.482Z,8.41
2017-11-12T17:08:04.143Z,8.50
2017-11-12T17:10:30.845Z,8.42
2017-11-12T17:12:58.496Z,8.17
2017-11-12T17:15:25.928Z,8.12
2017-11-12T17:17:52.640Z,8.22
2017-11-12T17:20:19.336Z,8.17
2017-11-12T17:22:46.764Z,8.14
2017-11-12T17:25:13.833Z,8.21
2017-11-12T17:27:41.285Z,8.31
2017-11-12T17:30:08.050Z,8.35
2017-11-12T17:32:34.748Z,8.30
2017-11-12T17:35:01.503Z,8.33
2017-11-12T17:37:28.609Z,8.29
2017-11-12T17:39:55.273Z,8.23
2017-11-12T17:42:21.987Z,8.19
2017-11-12T17:44:48.741Z,8.06
2017-11-12T17:47:15.461Z,7.95
2017-11-12T17:49:42.889Z,7.95
2017-11-12T17:52:09.637Z,7.74
2017-11-12T17:54:36.356Z,7.56
2017-11-12T17:57:03.063Z,7.65
2017-11-12T17:59:30.480Z,7.69
2017-11-12T18:01:57.190Z,7.52
2017-11-12T18:04:23.876Z,7.71
2017-11-12T18:06:50.559Z,7.65
2017-11-12T18:09:17.220Z,7.70
2017-11-12T18:11:43.931Z,7.71
2017-11-12T18:14:11.432Z,7.71
2017-11-12T18:16:38.158Z,7.68
2017-11-12T18:19:04.887Z,7.82
2017-11-12T18:21:32.375Z,7.80
2017-11-12T18:23:59.155Z,7.80
2017-11-12T18:26:25.903Z,7.79
2017-11-12T18:28:52.564Z,7.84
2017-11-12T18:31:19.325Z,7.83
2017-11-12T18:33:46.751Z,7.77
2017-11-12T18:36:14.213Z,7.84
2017-11-12T18:38:40.965Z,7.73
2017-11-12T18:41:07.744Z,7.79
2017-11-12T18:43:35.299Z,7.82
2017-11-12T18:46:02.766Z,7.79
2017-11-12T18:48:30.270Z,7.80
2017-11-12T18:50:57.825Z,7.72
2017-11-12T18:53:24.527Z,7.68
2017-11-12T19:09:24.607Z,7.38
2017-11-12T19:11:51.366Z,7.51
2017-11-12T19:14:18.109Z,7.57
2017-11-12T19:16:46.872Z,7.40
2017-11-12T19:32:43.405Z,6.93
2017-11-12T19:35:10.180Z,6.94
2017-11-12T19:37:37.636Z,6.60
2017-11-12T19:40:04.374Z,6.65
2017-11-12T19:42:31.040Z,6.45
2017-11-12T19:44:57.745Z,6.36
2017-11-12T19:47:24.461Z,6.27
2017-11-12T19:49:51.877Z,6.57
2017-11-12T19:52:18.580Z,6.52
2017-11-12T19:54:46.018Z,6.63
2017-11-12T19:57:13.413Z,6.48
2017-11-12T19:59:40.158Z,6.55
2017-11-12T20:02:06.949Z,6.42
2017-11-12T20:04:33.657Z,6.54
2017-11-12T20:07:00.426Z,6.52
2017-11-12T20:09:27.161Z,6.46
2017-11-12T20:11:53.879Z,6.65
2017-11-12T20:14:20.603Z,6.79
2017-11-12T20:16:48.045Z,6.74
2017-11-12T20:19:14.738Z,6.85
2017-11-12T20:21:41.509Z,6.95
2017-11-12T20:24:08.206Z,7.05
2017-11-12T20:26:34.906Z,7.10
2017-11-12T20:29:01.607Z,7.03
2017-11-12T20:31:28.352Z,7.11
2017-11-12T20:33:55.121Z,7.12
2017-11-12T20:36:21.928Z,7.04
2017-11-12T20:38:48.596Z,6.97
2017-11-12T20:41:15.278Z,6.93
2017-11-12T20:43:41.927Z,7.07
2017-11-12T20:46:08.769Z,7.02
2017-11-12T20:48:36.399Z,6.83
2017-11-12T20:51:06.057Z,6.71
2017-11-12T20:53:33.558Z,6.61
2017-11-12T20:56:00.284Z,6.77
2017-11-12T20:58:27.027Z,6.56
2017-11-12T21:00:54.748Z,6.57
2017-11-12T21:03:22.308Z,6.67
2017-11-12T21:05:49.068Z,6.60
2017-11-12T21:08:15.843Z,6.88
2017-11-12T21:10:42.600Z,7.00
2017-11-12T21:13:09.592Z,7.13
2017-11-12T21:15:37.452Z,6.80
2017-11-12T21:18:04.238Z,6.64
2017-11-12T21:34:01.206Z,6.94
2017-11-12T21:36:39.545Z,7.03
2017-11-12T21:39:06.389Z,6.95
2017-11-12T21:41:33.215Z,6.90
2017-11-12T21:44:00.705Z,7.00
2017-11-12T21:46:27.425Z,7.10
2017-11-12T21:48:54.870Z,7.29
2017-11-12T21:51:22.494Z,7.32
2017-11-12T21:53:49.219Z,7.41
2017-11-12T21:56:16.266Z,7.53
2017-11-12T21:58:42.995Z,7.66
2017-11-12T22:01:10.454Z,7.74
2017-11-12T22:03:37.873Z,7.91
2017-11-12T22:06:05.392Z,8.19
2017-11-12T22:08:32.120Z,8.12
2017-11-12T22:10:59.551Z,8.23
2017-11-12T22:13:26.287Z,8.30
2017-11-12T22:15:53.039Z,8.51
2017-11-12T22:18:19.825Z,8.57
2017-11-12T22:20:46.591Z,8.69
2017-11-12T22:23:13.305Z,8.87
2017-11-12T22:25:40.817Z,8.85
2017-11-12T22:28:07.852Z,8.86
2017-11-12T22:30:34.685Z,8.87
2017-11-12T22:33:01.396Z,8.67
2017-11-12T22:35:28.805Z,8.55
2017-11-12T22:37:55.732Z,8.51
2017-11-12T22:40:22.491Z,8.48
2017-11-12T22:42:49.352Z,8.61
2017-11-12T22:45:16.040Z,8.69
2017-11-12T22:47:43.443Z,8.81
2017-11-12T22:50:10.091Z,8.86
2017-11-12T22:52:37.216Z,8.87
2017-11-12T22:55:03.947Z,8.80
2017-11-12T22:57:31.397Z,8.87
2017-11-12T22:59:58.904Z,8.92
2017-11-12T23:02:25.764Z,9.06
2017-11-12T23:04:52.562Z,9.09
2017-11-12T23:07:20.043Z,9.07
2017-11-12T23:09:46.853Z,9.15
2017-11-12T23:12:14.321Z,9.23
2017-11-12T23:14:42.810Z,9.23
2017-11-12T23:17:09.564Z,9.33
2017-11-12T23:19:37.227Z,9.45
2017-11-12T23:22:04.666Z,9.54
2017-11-12T23:24:31.442Z,9.51
2017-11-12T23:26:58.880Z,9.58
2017-11-12T23:29:25.578Z,9.39
2017-11-12T23:31:52.381Z,9.29
2017-11-12T23:34:19.771Z,9.30
2017-11-12T23:36:46.482Z,9.33
2017-11-12T23:39:13.912Z,9.13
2017-11-12T23:41:40.588Z,8.83
2017-11-12T23:44:08.060Z,9.07
2017-11-12T23:46:34.808Z,8.94
2017-11-12T23:49:01.478Z,8.90
2017-11-12T23:51:28.149Z,8.80
2017-11-12T23:53:55.064Z,9.01
2017-11-12T23:56:21.899Z,9.10
2017-11-12T23:58:48.602Z,9.22
